sensor_id;sensor_type;location;lat;lon;timestamp;pressure;altitude;pressure_sealevel;temperature;humidity
64967;BME280;51710;38.732;-121.358;2023-02-10T00:01:26;101962.09;;;19.26;51.80
64967;BME280;51710;38.732;-121.358;2023-02-10T00:03:53;101970.44;;;19.16;52.15
64967;BME280;51710;38.732;-121.358;2023-02-10T00:06:21;101968.09;;;19.13;52.56
64967;BME280;51710;38.732;-121.358;2023-02-10T00:08:51;101969.63;;;19.16;52.48
64967;BME280;51710;38.732;-121.358;2023-02-10T00:11:18;101966.06;;;19.15;52.50
64967;BME280;51710;38.732;-121.358;2023-02-10T00:13:45;101967.72;;;19.16;52.27
64967;BME280;51710;38.732;-121.358;2023-02-10T00:16:14;101962.69;;;19.13;52.11
64967;BME280;51710;38.732;-121.358;2023-02-10T00:18:41;101974.06;;;19.08;52.23
64967;BME280;51710;38.732;-121.358;2023-02-10T00:21:13;101976.28;;;19.05;52.47
64967;BME280;51710;38.732;-121.358;2023-02-10T00:23:40;101964.63;;;19.04;52.74
64967;BME280;51710;38.732;-121.358;2023-02-10T00:26:08;101967.53;;;19.03;52.56
64967;BME280;51710;38.732;-121.358;2023-02-10T00:28:35;101956.91;;;19.01;52.70
64967;BME280;51710;38.732;-121.358;2023-02-10T00:31:06;101964.16;;;19.01;52.58
64967;BME280;51710;38.732;-121.358;2023-02-10T00:33:32;101957.75;;;19.02;52.60
64967;BME280;51710;38.732;-121.358;2023-02-10T00:36:02;101967.22;;;18.98;52.78
64967;BME280;51710;38.732;-121.358;2023-02-10T00:38:28;101963.88;;;18.96;52.75
64967;BME280;51710;38.732;-121.358;2023-02-10T00:40:54;101966.09;;;18.92;52.78
64967;BME280;51710;38.732;-121.358;2023-02-10T00:43:21;101968.31;;;18.89;53.01
64967;BME280;51710;38.732;-121.358;2023-02-10T00:45:47;101959.91;;;18.84;53.05
64967;BME280;51710;38.732;-121.358;2023-02-10T00:48:13;101961.94;;;18.82;53.23
64967;BME280;51710;38.732;-121.358;2023-02-10T00:50:39;101955.88;;;18.80;53.38
64967;BME280;51710;38.732;-121.358;2023-02-10T00:53:05;101962.50;;;18.77;53.11
64967;BME280;51710;38.732;-121.358;2023-02-10T00:55:32;101963.31;;;18.78;53.71
64967;BME280;51710;38.732;-121.358;2023-02-10T00:57:58;101959.97;;;18.76;53.68
64967;BME280;51710;38.732;-121.358;2023-02-10T01:00:24;101953.25;;;18.72;53.89
64967;BME280;51710;38.732;-121.358;2023-02-10T01:02:50;101960.88;;;18.68;54.14
64967;BME280;51710;38.732;-121.358;2023-02-10T01:05:17;101966.78;;;18.64;54.10
64967;BME280;51710;38.732;-121.358;2023-02-10T01:07:43;101956.72;;;18.58;54.55
64967;BME280;51710;38.732;-121.358;2023-02-10T01:10:09;101966.56;;;18.51;54.37
64967;BME280;51710;38.732;-121.358;2023-02-10T01:12:35;101968.47;;;18.42;54.26
64967;BME280;51710;38.732;-121.358;2023-02-10T01:15:02;101970.16;;;18.35;54.37
64967;BME280;51710;38.732;-121.358;2023-02-10T01:17:28;101970.19;;;18.27;54.50
64967;BME280;51710;38.732;-121.358;2023-02-10T01:19:55;101983.91;;;18.18;54.82
64967;BME280;51710;38.732;-121.358;2023-02-10T01:22:21;101972.50;;;18.08;54.72
64967;BME280;51710;38.732;-121.358;2023-02-10T01:24:49;101977.91;;;17.99;54.74
64967;BME280;51710;38.732;-121.358;2023-02-10T01:27:15;101980.66;;;17.91;54.91
64967;BME280;51710;38.732;-121.358;2023-02-10T01:29:42;101978.00;;;17.83;55.02
64967;BME280;51710;38.732;-121.358;2023-02-10T01:32:08;101985.09;;;17.76;55.22
64967;BME280;51710;38.732;-121.358;2023-02-10T01:34:36;101982.03;;;17.71;55.37
64967;BME280;51710;38.732;-121.358;2023-02-10T01:37:03;101983.91;;;17.63;55.89
64967;BME280;51710;38.732;-121.358;2023-02-10T01:39:29;101983.09;;;17.54;55.85
64967;BME280;51710;38.732;-121.358;2023-02-10T01:41:55;101983.25;;;17.45;56.38
64967;BME280;51710;38.732;-121.358;2023-02-10T01:46:48;101986.31;;;17.26;56.44
64967;BME280;51710;38.732;-121.358;2023-02-10T01:49:18;101981.63;;;17.12;56.77
64967;BME280;51710;38.732;-121.358;2023-02-10T01:51:58;101989.84;;;17.02;56.90
64967;BME280;51710;38.732;-121.358;2023-02-10T01:54:40;101987.81;;;16.80;57.05
64967;BME280;51710;38.732;-121.358;2023-02-10T01:57:07;101995.19;;;16.62;57.30
64967;BME280;51710;38.732;-121.358;2023-02-10T01:59:36;101990.91;;;16.43;57.84
64967;BME280;51710;38.732;-121.358;2023-02-10T02:02:03;102000.75;;;16.27;58.55
64967;BME280;51710;38.732;-121.358;2023-02-10T02:07:14;101999.16;;;15.74;59.55
64967;BME280;51710;38.732;-121.358;2023-02-10T02:09:43;102003.81;;;15.64;60.03
64967;BME280;51710;38.732;-121.358;2023-02-10T02:13:03;102006.13;;;15.59;60.35
64967;BME280;51710;38.732;-121.358;2023-02-10T02:15:37;101994.34;;;15.52;60.65
64967;BME280;51710;38.732;-121.358;2023-02-10T02:32:10;102012.56;;;14.88;62.28
64967;BME280;51710;38.732;-121.358;2023-02-10T02:34:56;102018.47;;;14.74;62.37
64967;BME280;51710;38.732;-121.358;2023-02-10T02:37:29;102027.56;;;14.63;62.72
64967;BME280;51710;38.732;-121.358;2023-02-10T02:39:56;102018.53;;;14.47;63.37
64967;BME280;51710;38.732;-121.358;2023-02-10T02:42:28;102022.09;;;14.38;63.70
64967;BME280;51710;38.732;-121.358;2023-02-10T02:45:04;102018.59;;;14.28;63.81
64967;BME280;51710;38.732;-121.358;2023-02-10T02:50:42;102016.31;;;14.06;64.57
64967;BME280;51710;38.732;-121.358;2023-02-10T02:53:50;102023.22;;;13.99;64.66
64967;BME280;51710;38.732;-121.358;2023-02-10T02:56:32;102017.78;;;13.91;64.87
64967;BME280;51710;38.732;-121.358;2023-02-10T03:01:45;102021.09;;;13.75;65.35
64967;BME280;51710;38.732;-121.358;2023-02-10T03:04:15;102019.97;;;13.68;65.57
64967;BME280;51710;38.732;-121.358;2023-02-10T03:06:51;102015.94;;;13.54;65.90
64967;BME280;51710;38.732;-121.358;2023-02-10T03:09:20;102016.78;;;13.45;66.04
64967;BME280;51710;38.732;-121.358;2023-02-10T03:11:47;102019.06;;;13.31;66.23
64967;BME280;51710;38.732;-121.358;2023-02-10T03:14:13;102010.50;;;13.18;67.10
64967;BME280;51710;38.732;-121.358;2023-02-10T03:16:39;102003.31;;;13.09;67.09
64967;BME280;51710;38.732;-121.358;2023-02-10T03:19:05;102008.38;;;13.02;67.32
64967;BME280;51710;38.732;-121.358;2023-02-10T03:21:32;102005.25;;;12.97;67.59
64967;BME280;51710;38.732;-121.358;2023-02-10T03:23:58;101994.84;;;12.94;67.63
64967;BME280;51710;38.732;-121.358;2023-02-10T03:26:28;101994.13;;;12.92;68.04
64967;BME280;51710;38.732;-121.358;2023-02-10T03:28:54;101988.94;;;12.91;68.06
64967;BME280;51710;38.732;-121.358;2023-02-10T03:31:21;101999.34;;;12.84;68.35
64967;BME280;51710;38.732;-121.358;2023-02-10T03:33:47;102000.91;;;12.77;68.94
64967;BME280;51710;38.732;-121.358;2023-02-10T03:36:14;102001.59;;;12.70;69.03
64967;BME280;51710;38.732;-121.358;2023-02-10T03:38:40;102009.47;;;12.62;69.15
64967;BME280;51710;38.732;-121.358;2023-02-10T03:41:07;102011.97;;;12.54;69.29
64967;BME280;51710;38.732;-121.358;2023-02-10T03:43:33;102011.97;;;12.44;69.41
64967;BME280;51710;38.732;-121.358;2023-02-10T03:46:03;102013.34;;;12.38;70.04
64967;BME280;51710;38.732;-121.358;2023-02-10T03:48:30;102014.72;;;12.33;70.26
64967;BME280;51710;38.732;-121.358;2023-02-10T03:50:58;102011.63;;;12.28;70.41
64967;BME280;51710;38.732;-121.358;2023-02-10T03:53:25;102014.81;;;12.12;70.64
64967;BME280;51710;38.732;-121.358;2023-02-10T03:55:51;102009.28;;;11.95;71.31
64967;BME280;51710;38.732;-121.358;2023-02-10T03:58:17;102017.91;;;11.78;71.52
64967;BME280;51710;38.732;-121.358;2023-02-10T04:00:44;102020.31;;;11.60;71.72
64967;BME280;51710;38.732;-121.358;2023-02-10T04:03:10;102012.13;;;11.52;71.91
64967;BME280;51710;38.732;-121.358;2023-02-10T04:05:36;102010.41;;;11.51;72.35
64967;BME280;51710;38.732;-121.358;2023-02-10T04:08:03;102011.88;;;11.55;72.44
64967;BME280;51710;38.732;-121.358;2023-02-10T04:10:29;102011.72;;;11.57;72.32
64967;BME280;51710;38.732;-121.358;2023-02-10T04:12:55;102006.78;;;11.52;71.88
64967;BME280;51710;38.732;-121.358;2023-02-10T04:15:24;102018.84;;;11.47;72.47
64967;BME280;51710;38.732;-121.358;2023-02-10T04:17:50;101998.84;;;11.41;72.53
64967;BME280;51710;38.732;-121.358;2023-02-10T04:20:17;102015.38;;;11.35;72.62
64967;BME280;51710;38.732;-121.358;2023-02-10T04:22:43;102017.59;;;11.30;73.10
64967;BME280;51710;38.732;-121.358;2023-02-10T04:25:10;102024.88;;;11.28;73.29
64967;BME280;51710;38.732;-121.358;2023-02-10T04:27:37;102018.94;;;11.24;73.44
64967;BME280;51710;38.732;-121.358;2023-02-10T04:30:04;102030.88;;;11.20;73.61
64967;BME280;51710;38.732;-121.358;2023-02-10T04:32:30;102032.09;;;11.16;73.65
64967;BME280;51710;38.732;-121.358;2023-02-10T04:34:56;102019.97;;;11.12;74.04
64967;BME280;51710;38.732;-121.358;2023-02-10T04:37:23;102031.75;;;11.10;74.42
64967;BME280;51710;38.732;-121.358;2023-02-10T04:39:49;102037.47;;;11.05;73.58
64967;BME280;51710;38.732;-121.358;2023-02-10T04:42:15;102037.25;;;10.97;73.95
64967;BME280;51710;38.732;-121.358;2023-02-10T04:44:42;102047.50;;;10.81;74.50
64967;BME280;51710;38.732;-121.358;2023-02-10T04:47:08;102043.31;;;10.68;75.20
64967;BME280;51710;38.732;-121.358;2023-02-10T04:49:37;102038.97;;;10.67;75.59
64967;BME280;51710;38.732;-121.358;2023-02-10T04:52:03;102037.00;;;10.69;75.11
64967;BME280;51710;38.732;-121.358;2023-02-10T04:54:29;102032.25;;;10.72;74.91
64967;BME280;51710;38.732;-121.358;2023-02-10T04:56:56;102034.91;;;10.72;75.33
64967;BME280;51710;38.732;-121.358;2023-02-10T04:59:22;102028.03;;;10.70;74.99
64967;BME280;51710;38.732;-121.358;2023-02-10T05:01:48;102029.13;;;10.67;75.62
64967;BME280;51710;38.732;-121.358;2023-02-10T05:04:15;102037.25;;;10.66;75.54
64967;BME280;51710;38.732;-121.358;2023-02-10T05:06:41;102037.75;;;10.60;75.59
64967;BME280;51710;38.732;-121.358;2023-02-10T05:09:08;102034.38;;;10.58;76.12
64967;BME280;51710;38.732;-121.358;2023-02-10T05:11:34;102021.91;;;10.58;76.15
64967;BME280;51710;38.732;-121.358;2023-02-10T05:14:00;102018.25;;;10.59;76.06
64967;BME280;51710;38.732;-121.358;2023-02-10T05:16:27;102019.00;;;10.61;76.05
64967;BME280;51710;38.732;-121.358;2023-02-10T05:18:53;102006.63;;;10.60;75.73
64967;BME280;51710;38.732;-121.358;2023-02-10T05:21:19;102003.00;;;10.61;76.59
64967;BME280;51710;38.732;-121.358;2023-02-10T05:23:45;101998.28;;;10.65;76.71
64967;BME280;51710;38.732;-121.358;2023-02-10T05:26:11;101989.88;;;10.69;76.36
64967;BME280;51710;38.732;-121.358;2023-02-10T05:28:38;101991.81;;;10.78;77.29
64967;BME280;51710;38.732;-121.358;2023-02-10T05:31:04;101988.63;;;10.84;76.82
64967;BME280;51710;38.732;-121.358;2023-02-10T05:33:34;101988.38;;;10.87;77.04
64967;BME280;51710;38.732;-121.358;2023-02-10T05:36:01;101994.78;;;10.85;76.78
64967;BME280;51710;38.732;-121.358;2023-02-10T05:38:27;101992.28;;;10.72;76.81
64967;BME280;51710;38.732;-121.358;2023-02-10T05:40:54;101995.84;;;10.62;77.16
64967;BME280;51710;38.732;-121.358;2023-02-10T05:43:20;101997.94;;;10.58;77.57
64967;BME280;51710;38.732;-121.358;2023-02-10T05:45:47;101993.56;;;10.57;77.36
64967;BME280;51710;38.732;-121.358;2023-02-10T05:48:13;101991.63;;;10.59;78.21
64967;BME280;51710;38.732;-121.358;2023-02-10T05:50:39;101977.19;;;10.62;78.47
64967;BME280;51710;38.732;-121.358;2023-02-10T05:53:07;101987.34;;;10.68;78.35
64967;BME280;51710;38.732;-121.358;2023-02-10T05:55:34;101975.34;;;10.73;78.23
64967;BME280;51710;38.732;-121.358;2023-02-10T05:58:00;101980.41;;;10.76;78.57
64967;BME280;51710;38.732;-121.358;2023-02-10T06:00:28;101981.88;;;10.80;78.40
64967;BME280;51710;38.732;-121.358;2023-02-10T06:02:54;101974.59;;;10.82;79.00
64967;BME280;51710;38.732;-121.358;2023-02-10T06:05:20;101976.41;;;10.82;79.25
64967;BME280;51710;38.732;-121.358;2023-02-10T06:07:47;101984.41;;;10.82;78.89
64967;BME280;51710;38.732;-121.358;2023-02-10T06:10:13;101973.75;;;10.82;78.63
64967;BME280;51710;38.732;-121.358;2023-02-10T06:12:39;101982.00;;;10.79;78.43
64967;BME280;51710;38.732;-121.358;2023-02-10T06:15:06;101980.28;;;10.78;79.05
64967;BME280;51710;38.732;-121.358;2023-02-10T06:17:32;101982.63;;;10.71;78.73
64967;BME280;51710;38.732;-121.358;2023-02-10T06:19:58;101986.31;;;10.59;78.37
64967;BME280;51710;38.732;-121.358;2023-02-10T06:22:25;101983.91;;;10.45;78.53
64967;BME280;51710;38.732;-121.358;2023-02-10T06:24:51;101973.66;;;10.41;79.26
64967;BME280;51710;38.732;-121.358;2023-02-10T06:27:17;101975.47;;;10.40;79.52
64967;BME280;51710;38.732;-121.358;2023-02-10T06:29:43;101978.13;;;10.40;79.69
64967;BME280;51710;38.732;-121.358;2023-02-10T06:32:10;101976.19;;;10.42;79.72
64967;BME280;51710;38.732;-121.358;2023-02-10T06:34:36;101972.28;;;10.46;79.98
64967;BME280;51710;38.732;-121.358;2023-02-10T06:37:02;101971.00;;;10.41;79.20
64967;BME280;51710;38.732;-121.358;2023-02-10T06:39:28;101971.47;;;10.35;79.72
64967;BME280;51710;38.732;-121.358;2023-02-10T06:41:55;101979.00;;;10.30;79.69
64967;BME280;51710;38.732;-121.358;2023-02-10T06:44:23;101981.91;;;10.27;79.88
64967;BME280;51710;38.732;-121.358;2023-02-10T06:46:53;101978.53;;;10.25;80.45
64967;BME280;51710;38.732;-121.358;2023-02-10T06:49:23;101972.88;;;10.18;80.07
64967;BME280;51710;38.732;-121.358;2023-02-10T06:51:51;101969.97;;;10.10;79.91
64967;BME280;51710;38.732;-121.358;2023-02-10T06:54:21;101962.97;;;10.09;80.35
64967;BME280;51710;38.732;-121.358;2023-02-10T06:56:48;101962.97;;;10.09;80.71
64967;BME280;51710;38.732;-121.358;2023-02-10T06:59:15;101959.44;;;10.08;80.58
64967;BME280;51710;38.732;-121.358;2023-02-10T07:01:42;101958.22;;;10.12;80.88
64967;BME280;51710;38.732;-121.358;2023-02-10T07:04:08;101952.53;;;10.17;81.20
64967;BME280;51710;38.732;-121.358;2023-02-10T07:06:36;101951.31;;;10.21;81.03
64967;BME280;51710;38.732;-121.358;2023-02-10T07:09:06;101942.13;;;10.25;81.03
64967;BME280;51710;38.732;-121.358;2023-02-10T07:11:34;101940.88;;;10.29;81.40
64967;BME280;51710;38.732;-121.358;2023-02-10T07:14:00;101937.25;;;10.30;81.05
64967;BME280;51710;38.732;-121.358;2023-02-10T07:16:27;101929.00;;;10.33;80.95
64967;BME280;51710;38.732;-121.358;2023-02-10T07:18:55;101941.34;;;10.34;81.38
64967;BME280;51710;38.732;-121.358;2023-02-10T07:21:24;101931.41;;;10.36;81.33
64967;BME280;51710;38.732;-121.358;2023-02-10T07:23:50;101936.75;;;10.36;80.63
64967;BME280;51710;38.732;-121.358;2023-02-10T07:26:17;101940.50;;;10.34;80.54
64967;BME280;51710;38.732;-121.358;2023-02-10T07:28:46;101935.28;;;10.32;81.45
64967;BME280;51710;38.732;-121.358;2023-02-10T07:31:13;101945.13;;;10.32;81.45
64967;BME280;51710;38.732;-121.358;2023-02-10T07:33:39;101951.41;;;10.31;80.80
64967;BME280;51710;38.732;-121.358;2023-02-10T07:36:06;101953.94;;;10.32;81.68
64967;BME280;51710;38.732;-121.358;2023-02-10T07:38:33;101961.22;;;10.30;81.61
64967;BME280;51710;38.732;-121.358;2023-02-10T07:41:00;101956.38;;;10.24;81.12
64967;BME280;51710;38.732;-121.358;2023-02-10T07:43:26;101965.69;;;10.18;81.08
64967;BME280;51710;38.732;-121.358;2023-02-10T07:45:52;101949.25;;;10.13;81.49
64967;BME280;51710;38.732;-121.358;2023-02-10T07:48:18;101948.53;;;10.11;81.31
64967;BME280;51710;38.732;-121.358;2023-02-10T07:50:46;101953.03;;;10.11;81.49
64967;BME280;51710;38.732;-121.358;2023-02-10T07:53:17;101944.19;;;10.10;81.76
64967;BME280;51710;38.732;-121.358;2023-02-10T07:55:46;101942.38;;;10.11;81.70
64967;BME280;51710;38.732;-121.358;2023-02-10T07:58:13;101938.50;;;10.04;81.63
64967;BME280;51710;38.732;-121.358;2023-02-10T08:00:43;101945.97;;;9.99;82.07
64967;BME280;51710;38.732;-121.358;2023-02-10T08:03:14;101947.09;;;9.96;82.30
64967;BME280;51710;38.732;-121.358;2023-02-10T08:05:41;101945.97;;;9.99;82.18
64967;BME280;51710;38.732;-121.358;2023-02-10T08:08:13;101941.63;;;9.98;81.81
64967;BME280;51710;38.732;-121.358;2023-02-10T08:10:39;101932.09;;;9.95;81.83
64967;BME280;51710;38.732;-121.358;2023-02-10T08:13:06;101929.78;;;9.91;82.03
64967;BME280;51710;38.732;-121.358;2023-02-10T08:15:33;101937.53;;;9.94;82.24
64967;BME280;51710;38.732;-121.358;2023-02-10T08:18:00;101937.53;;;9.94;81.96
64967;BME280;51710;38.732;-121.358;2023-02-10T08:20:27;101932.19;;;9.94;81.98
64967;BME280;51710;38.732;-121.358;2023-02-10T08:22:57;101940.19;;;9.94;82.06
64967;BME280;51710;38.732;-121.358;2023-02-10T08:25:26;101926.19;;;9.92;82.11
64967;BME280;51710;38.732;-121.358;2023-02-10T08:27:52;101939.59;;;9.90;81.86
64967;BME280;51710;38.732;-121.358;2023-02-10T08:30:19;101934.66;;;9.86;81.90
64967;BME280;51710;38.732;-121.358;2023-02-10T08:32:45;101927.03;;;9.81;81.89
64967;BME280;51710;38.732;-121.358;2023-02-10T08:35:12;101917.97;;;9.73;81.58
64967;BME280;51710;38.732;-121.358;2023-02-10T08:37:38;101921.84;;;9.69;81.47
64967;BME280;51710;38.732;-121.358;2023-02-10T08:40:05;101916.53;;;9.69;82.51
64967;BME280;51710;38.732;-121.358;2023-02-10T08:42:32;101913.16;;;9.67;81.94
64967;BME280;51710;38.732;-121.358;2023-02-10T08:44:59;101918.47;;;9.67;82.25
64967;BME280;51710;38.732;-121.358;2023-02-10T08:47:25;101911.47;;;9.66;82.48
64967;BME280;51710;38.732;-121.358;2023-02-10T08:49:52;101913.16;;;9.67;82.59
64967;BME280;51710;38.732;-121.358;2023-02-10T08:52:18;101913.41;;;9.64;82.11
64967;BME280;51710;38.732;-121.358;2023-02-10T08:54:46;101910.25;;;9.59;82.50
64967;BME280;51710;38.732;-121.358;2023-02-10T08:57:12;101909.66;;;9.55;82.42
64967;BME280;51710;38.732;-121.358;2023-02-10T08:59:39;101907.81;;;9.56;82.80
64967;BME280;51710;38.732;-121.358;2023-02-10T09:02:05;101912.41;;;9.54;82.73
64967;BME280;51710;38.732;-121.358;2023-02-10T09:04:32;101915.06;;;9.54;83.18
64967;BME280;51710;38.732;-121.358;2023-02-10T09:06:58;101919.44;;;9.55;83.38
64967;BME280;51710;38.732;-121.358;2023-02-10T09:09:24;101921.97;;;9.56;82.87
64967;BME280;51710;38.732;-121.358;2023-02-10T09:11:52;101914.97;;;9.55;83.16
64967;BME280;51710;38.732;-121.358;2023-02-10T09:14:19;101912.19;;;9.57;83.31
64967;BME280;51710;38.732;-121.358;2023-02-10T09:16:45;101919.19;;;9.58;83.04
64967;BME280;51710;38.732;-121.358;2023-02-10T09:19:12;101917.50;;;9.57;82.78
64967;BME280;51710;38.732;-121.358;2023-02-10T09:21:38;101921.13;;;9.56;82.81
64967;BME280;51710;38.732;-121.358;2023-02-10T09:24:05;101919.44;;;9.55;83.30
64967;BME280;51710;38.732;-121.358;2023-02-10T09:26:31;101920.38;;;9.54;82.73
64967;BME280;51710;38.732;-121.358;2023-02-10T09:29:01;101917.03;;;9.52;82.92
64967;BME280;51710;38.732;-121.358;2023-02-10T09:31:28;101925.00;;;9.52;82.98
64967;BME280;51710;38.732;-121.358;2023-02-10T09:33:55;101910.97;;;9.50;82.61
64967;BME280;51710;38.732;-121.358;2023-02-10T09:36:21;101927.88;;;9.49;83.10
64967;BME280;51710;38.732;-121.358;2023-02-10T09:38:47;101917.38;;;9.47;82.87
64967;BME280;51710;38.732;-121.358;2023-02-10T09:55:01;101909.53;;;9.46;82.50
64967;BME280;51710;38.732;-121.358;2023-02-10T09:57:40;101915.91;;;9.43;82.84
64967;BME280;51710;38.732;-121.358;2023-02-10T10:11:09;101910.84;;;9.40;82.37
64967;BME280;51710;38.732;-121.358;2023-02-10T10:13:44;101909.28;;;9.38;82.70
64967;BME280;51710;38.732;-121.358;2023-02-10T10:16:22;101909.63;;;9.33;82.75
64967;BME280;51710;38.732;-121.358;2023-02-10T10:24:39;101893.69;;;9.22;82.65
64967;BME280;51710;38.732;-121.358;2023-02-10T10:30:11;101895.75;;;9.19;82.64
64967;BME280;51710;38.732;-121.358;2023-02-10T10:32:41;101887.03;;;9.17;82.59
64967;BME280;51710;38.732;-121.358;2023-02-10T10:35:18;101888.13;;;9.14;82.59
64967;BME280;51710;38.732;-121.358;2023-02-10T10:37:46;101880.28;;;9.13;83.10
64967;BME280;51710;38.732;-121.358;2023-02-10T10:40:30;101884.38;;;9.17;83.06
64967;BME280;51710;38.732;-121.358;2023-02-10T10:42:59;101882.34;;;9.20;83.10
64967;BME280;51710;38.732;-121.358;2023-02-10T10:45:31;101886.81;;;9.20;83.19
64967;BME280;51710;38.732;-121.358;2023-02-10T10:48:09;101886.81;;;9.20;83.07
64967;BME280;51710;38.732;-121.358;2023-02-10T10:50:39;101880.63;;;9.19;82.95
64967;BME280;51710;38.732;-121.358;2023-02-10T10:56:02;101878.94;;;9.18;82.94
64967;BME280;51710;38.732;-121.358;2023-02-10T10:58:36;101880.88;;;9.16;82.89
64967;BME280;51710;38.732;-121.358;2023-02-10T11:01:04;101884.38;;;9.17;82.57
64967;BME280;51710;38.732;-121.358;2023-02-10T11:03:32;101892.34;;;9.17;82.99
64967;BME280;51710;38.732;-121.358;2023-02-10T11:06:12;101884.59;;;9.13;83.28
64967;BME280;51710;38.732;-121.358;2023-02-10T11:08:45;101883.41;;;9.06;82.51
64967;BME280;51710;38.732;-121.358;2023-02-10T11:11:17;101877.59;;;9.01;82.69
64967;BME280;51710;38.732;-121.358;2023-02-10T11:13:54;101873.50;;;8.97;82.94
64967;BME280;51710;38.732;-121.358;2023-02-10T11:16:21;101872.03;;;8.93;82.85
64967;BME280;51710;38.732;-121.358;2023-02-10T11:18:53;101866.00;;;8.91;83.25
64967;BME280;51710;38.732;-121.358;2023-02-10T11:21:20;101868.91;;;8.88;83.42
64967;BME280;51710;38.732;-121.358;2023-02-10T11:23:50;101855.84;;;8.85;83.33
64967;BME280;51710;38.732;-121.358;2023-02-10T11:26:23;101856.69;;;8.86;83.25
64967;BME280;51710;38.732;-121.358;2023-02-10T11:28:51;101855.00;;;8.85;83.53
64967;BME280;51710;38.732;-121.358;2023-02-10T11:31:28;101861.16;;;8.85;83.54
64967;BME280;51710;38.732;-121.358;2023-02-10T11:36:48;101862.59;;;8.89;83.70
64967;BME280;51710;38.732;-121.358;2023-02-10T11:39:23;101855.63;;;8.88;83.73
64967;BME280;51710;38.732;-121.358;2023-02-10T11:41:52;101856.47;;;8.89;83.38
64967;BME280;51710;38.732;-121.358;2023-02-10T11:47:01;101855.38;;;8.91;83.22
64967;BME280;51710;38.732;-121.358;2023-02-10T11:49:29;101860.69;;;8.91;83.47
64967;BME280;51710;38.732;-121.358;2023-02-10T11:52:00;101853.56;;;8.92;83.31
64967;BME280;51710;38.732;-121.358;2023-02-10T11:54:28;101861.66;;;8.90;83.31
64967;BME280;51710;38.732;-121.358;2023-02-10T11:59:59;101854.16;;;8.84;83.31
64967;BME280;51710;38.732;-121.358;2023-02-10T12:02:46;101858.59;;;8.84;83.24
64967;BME280;51710;38.732;-121.358;2023-02-10T12:08:22;101862.59;;;8.89;82.61
64967;BME280;51710;38.732;-121.358;2023-02-10T12:11:26;101857.03;;;8.81;82.72
64967;BME280;51710;38.732;-121.358;2023-02-10T12:16:53;101851.25;;;8.76;82.70
64967;BME280;51710;38.732;-121.358;2023-02-10T12:24:58;101852.09;;;8.31;82.17
64967;BME280;51710;38.732;-121.358;2023-02-10T12:40:42;101854.94;;;7.81;83.67
64967;BME280;51710;38.732;-121.358;2023-02-10T12:51:14;101851.19;;;7.60;84.01
64967;BME280;51710;38.732;-121.358;2023-02-10T12:53:50;101849.94;;;7.53;83.71
64967;BME280;51710;38.732;-121.358;2023-02-10T12:56:24;101845.53;;;7.41;83.43
64967;BME280;51710;38.732;-121.358;2023-02-10T12:59:43;101843.41;;;7.33;83.94
64967;BME280;51710;38.732;-121.358;2023-02-10T13:02:08;101837.69;;;7.27;84.12
64967;BME280;51710;38.732;-121.358;2023-02-10T13:04:44;101825.97;;;7.18;84.18
64967;BME280;51710;38.732;-121.358;2023-02-10T13:07:23;101835.91;;;7.15;84.17
64967;BME280;51710;38.732;-121.358;2023-02-10T13:12:37;101840.69;;;6.84;83.86
64967;BME280;51710;38.732;-121.358;2023-02-10T13:17:47;101846.38;;;6.66;84.84
64967;BME280;51710;38.732;-121.358;2023-02-10T13:26:05;101832.84;;;6.70;84.88
64967;BME280;51710;38.732;-121.358;2023-02-10T13:29:02;101841.53;;;6.72;84.80
64967;BME280;51710;38.732;-121.358;2023-02-10T13:31:56;101836.25;;;6.72;84.81
64967;BME280;51710;38.732;-121.358;2023-02-10T13:34:28;101832.00;;;6.70;85.00
64967;BME280;51710;38.732;-121.358;2023-02-10T13:37:55;101815.81;;;6.62;85.03
64967;BME280;51710;38.732;-121.358;2023-02-10T13:40:05;101805.88;;;6.65;85.62
64967;BME280;51710;38.732;-121.358;2023-02-10T13:42:44;101797.72;;;6.68;85.19
64967;BME280;51710;38.732;-121.358;2023-02-10T13:50:30;101780.44;;;6.88;86.06
64967;BME280;51710;38.732;-121.358;2023-02-10T13:53:05;101779.91;;;6.96;86.00
64967;BME280;51710;38.732;-121.358;2023-02-10T14:00:51;101781.75;;;7.19;86.13
64967;BME280;51710;38.732;-121.358;2023-02-10T14:13:42;101791.44;;;7.43;85.83
64967;BME280;51710;38.732;-121.358;2023-02-10T14:18:45;101795.34;;;7.50;85.51
64967;BME280;51710;38.732;-121.358;2023-02-10T14:21:17;101799.69;;;7.51;85.55
64967;BME280;51710;38.732;-121.358;2023-02-10T14:23:50;101800.53;;;7.52;85.43
64967;BME280;51710;38.732;-121.358;2023-02-10T14:26:30;101798.84;;;7.51;85.21
64967;BME280;51710;38.732;-121.358;2023-02-10T14:28:59;101793.53;;;7.51;85.47
64967;BME280;51710;38.732;-121.358;2023-02-10T14:31:35;101789.75;;;7.42;84.56
64967;BME280;51710;38.732;-121.358;2023-02-10T14:37:12;101803.44;;;7.36;85.19
64967;BME280;51710;38.732;-121.358;2023-02-10T14:39:39;101802.69;;;7.34;84.90
64967;BME280;51710;38.732;-121.358;2023-02-10T14:42:14;101802.59;;;7.36;85.02
64967;BME280;51710;38.732;-121.358;2023-02-10T14:44:44;101804.19;;;7.38;85.58
64967;BME280;51710;38.732;-121.358;2023-02-10T14:47:38;101807.47;;;7.42;85.80
64967;BME280;51710;38.732;-121.358;2023-02-10T14:50:30;101816.88;;;7.46;85.39
64967;BME280;51710;38.732;-121.358;2023-02-10T14:52:59;101818.56;;;7.47;85.05
64967;BME280;51710;38.732;-121.358;2023-02-10T14:55:32;101830.75;;;7.49;85.01